Current Weather

Norwood Memorial Airport

Norwood Memorial Airport, Massachusetts (KOWD)

Report from: Thursday, May 19, 2022 1:38 PM EDT
Current time: Thursday, May 19, 2022 1:55 PM EDT

Nearby weather
Weather history
Weather forecast

Temperature13.9°C (57.0°F)
Dew point10.0°C (50.0°F)
Winds 7 kts (3.6 m/s, 8.1 mph) South (170°)
Visibility10 mi. (16.1 km)
Clouds Ceiling: Overcast 1,400 ft. (427 m)
Altimeter29.74 in.Hg (1007 mB)
Relative humidity77 %
Density altitude252 ft. (77 m)
Remarks Automated weather observing station with precipitation discriminator
Flight conditions Marginal Visual Meteorological Conditions
Raw dataKOWD 191738Z 17007KT 10SM OVC014 14/10 A2974 RMK AO2 T01390100
An error has occurred. This application may no longer respond until reloaded. Reload 🗙